Terminal Aerodrome Forecast
Issued by NWS

Home | Current Version | Previous Version | Text Only | Print | Product List | Glossary On
Versions: 1 2 3 4 5 6 7 8 9 10 11 12
817
FTUS43 KPAH 191720
TAFCGI
TAF
KCGI 191720Z 1918/2018 27007KT P6SM SCT060
     FM200700 00000KT 4SM BR BCFG SKC=

USA.gov is the U.S. government's official web portal to all federal, state and local government web resources and services.